createdAt,value
2022-09-12T00:00:02.276Z,91
2022-09-12T00:01:03.864Z,91
2022-09-12T00:02:02.523Z,90.5
2022-09-12T00:03:02.585Z,90.2
2022-09-12T00:04:01.152Z,90.2
2022-09-12T00:05:01.762Z,90.3
2022-09-12T00:06:06.424Z,90.7
2022-09-12T00:07:01.899Z,91
2022-09-12T00:08:02.097Z,90.9
2022-09-12T00:09:00.466Z,90.7
2022-09-12T00:10:00.102Z,90.5
2022-09-12T00:11:07.411Z,90.2
2022-09-12T00:12:01.108Z,90.3
2022-09-12T00:13:01.120Z,90.4
2022-09-12T00:14:00.712Z,90.2
2022-09-12T00:15:00.308Z,90
2022-09-12T00:16:10.789Z,89.7
2022-09-12T00:17:01.038Z,90.1
2022-09-12T00:18:01.169Z,90.1
2022-09-12T00:19:00.738Z,89.7
2022-09-12T00:20:00.342Z,89.7
2022-09-12T00:21:14.378Z,89.7
2022-09-12T00:22:01.069Z,89.2
2022-09-12T00:23:01.098Z,88.8
2022-09-12T00:24:00.702Z,88.9
2022-09-12T00:25:00.273Z,88.8
2022-09-12T00:25:59.861Z,88.6
2022-09-12T00:26:59.454Z,88.6
2022-09-12T00:28:02.553Z,89
2022-09-12T00:29:01.113Z,88.7
2022-09-12T00:30:01.135Z,88
2022-09-12T00:31:01.130Z,88.3
2022-09-12T00:32:01.854Z,89
2022-09-12T00:33:02.106Z,88.8
2022-09-12T00:34:01.364Z,88.3
2022-09-12T00:35:01.060Z,88.2
2022-09-12T00:36:01.072Z,88.1
2022-09-12T00:37:01.076Z,88.1
2022-09-12T00:38:00.607Z,87.8
2022-09-12T00:39:00.277Z,87.8
2022-09-12T00:40:00.025Z,87.6
2022-09-12T00:41:00.424Z,87
2022-09-12T00:42:00.127Z,86.4
2022-09-12T00:42:59.763Z,86.4
2022-09-12T00:44:01.418Z,86
2022-09-12T00:45:02.048Z,86
2022-09-12T00:46:01.152Z,85.9
2022-09-12T00:47:01.257Z,85.6
2022-09-12T00:48:02.175Z,85.9
2022-09-12T00:49:00.812Z,85.7
2022-09-12T00:50:00.469Z,85.2
2022-09-12T00:51:00.030Z,85.2
2022-09-12T00:51:59.617Z,86
2022-09-12T00:53:01.738Z,86
2022-09-12T00:54:01.200Z,86
2022-09-12T00:55:01.028Z,85.2
2022-09-12T00:56:01.374Z,85
2022-09-12T00:57:02.150Z,85.2
2022-09-12T00:58:01.100Z,84.6
2022-09-12T00:59:00.761Z,84.6
2022-09-12T01:00:00.408Z,84.8
2022-09-12T01:01:00.103Z,84.9
2022-09-12T01:01:59.912Z,85
2022-09-12T01:02:59.702Z,85
2022-09-12T01:04:01.763Z,85.5
2022-09-12T01:05:01.412Z,85.4
2022-09-12T01:06:04.005Z,85.4
2022-09-12T01:07:01.155Z,85.3
2022-09-12T01:08:01.078Z,85.5
2022-09-12T01:09:00.672Z,85.2
2022-09-12T01:10:00.274Z,84.7
2022-09-12T01:10:59.962Z,84.9
2022-09-12T01:11:59.657Z,85
2022-09-12T01:13:02.204Z,85.1
2022-09-12T01:14:00.692Z,85
2022-09-12T01:15:00.397Z,85.1
2022-09-12T01:16:00.098Z,85.5
2022-09-12T01:16:59.806Z,85.5
2022-09-12T01:18:01.533Z,85
2022-09-12T01:19:00.622Z,84.9
2022-09-12T01:20:00.635Z,85.1
2022-09-12T01:21:00.331Z,85.4
2022-09-12T01:22:00.021Z,85.7
2022-09-12T01:22:59.726Z,85.6
2022-09-12T01:24:01.396Z,85.4
2022-09-12T01:25:01.086Z,85.3
2022-09-12T01:26:01.098Z,85.2
2022-09-12T01:27:01.124Z,85.2
2022-09-12T01:28:01.495Z,85
2022-09-12T01:29:00.787Z,84.7
2022-09-12T01:30:00.409Z,84.3
2022-09-12T01:30:59.974Z,84.5
2022-09-12T01:31:59.642Z,83.7
2022-09-12T01:33:01.230Z,82.8
2022-09-12T01:34:00.756Z,82.5
2022-09-12T01:35:00.363Z,82.6
2022-09-12T01:35:59.950Z,82.7
2022-09-12T01:36:59.995Z,82.8
2022-09-12T01:37:59.988Z,83
2022-09-12T01:38:59.619Z,83.6
2022-09-12T01:40:01.553Z,84.2
2022-09-12T01:41:02.133Z,84.2
2022-09-12T01:42:03.275Z,84.2
2022-09-12T01:43:01.102Z,84.4
2022-09-12T01:44:00.682Z,85.1
2022-09-12T01:45:00.276Z,85.8
2022-09-12T01:45:59.896Z,86
2022-09-12T01:47:04.879Z,86.4
2022-09-12T01:48:01.210Z,86.2
2022-09-12T01:49:00.774Z,86
2022-09-12T01:50:00.364Z,86.2
2022-09-12T01:51:00.005Z,86
2022-09-12T01:52:08.225Z,85.9
2022-09-12T01:53:01.072Z,85.6
2022-09-12T01:54:00.736Z,85.6
2022-09-12T01:55:00.361Z,86.4
2022-09-12T01:56:00.076Z,86.5
2022-09-12T01:57:10.161Z,87
2022-09-12T01:58:01.200Z,88.4
2022-09-12T01:59:00.729Z,88.2
2022-09-12T02:00:00.290Z,87.5
2022-09-12T02:00:59.917Z,87.2
2022-09-12T02:02:14.078Z,86.7
2022-09-12T02:03:01.126Z,86.8
2022-09-12T02:04:00.715Z,86.8
2022-09-12T02:05:00.940Z,86.8
2022-09-12T02:06:01.530Z,87.3
2022-09-12T02:07:16.778Z,87.6
2022-09-12T02:08:01.103Z,87.9
2022-09-12T02:09:00.764Z,87.7
2022-09-12T02:10:00.299Z,87.6
2022-09-12T02:10:59.939Z,88
2022-09-12T02:11:59.590Z,87.9
2022-09-12T02:13:01.257Z,88.4
2022-09-12T02:14:01.230Z,88
2022-09-12T02:15:01.487Z,89.2
2022-09-12T02:16:01.170Z,89.9
2022-09-12T02:17:01.221Z,90.1
2022-09-12T02:18:01.122Z,90.3
2022-09-12T02:19:00.686Z,90.3
2022-09-12T02:20:00.310Z,90.5
2022-09-12T02:20:59.912Z,90.3
2022-09-12T02:21:59.490Z,90.6
2022-09-12T02:23:02.084Z,90.7
2022-09-12T02:24:01.052Z,91
2022-09-12T02:25:01.075Z,90.9
2022-09-12T02:26:01.094Z,90.8
2022-09-12T02:27:01.082Z,90.5
2022-09-12T02:28:01.055Z,90.4
2022-09-12T02:29:00.902Z,90.2
2022-09-12T02:30:01.109Z,90.2
2022-09-12T02:31:01.109Z,89.8
2022-09-12T02:32:01.113Z,89.2
2022-09-12T02:33:01.130Z,88.7
2022-09-12T02:34:00.702Z,87.9
2022-09-12T02:35:00.299Z,87.6
2022-09-12T02:35:59.996Z,88
2022-09-12T02:36:59.702Z,87.7
2022-09-12T02:38:01.443Z,87.2
2022-09-12T02:39:00.997Z,87.4
2022-09-12T02:40:01.091Z,87.9
2022-09-12T02:41:01.077Z,88.6
2022-09-12T02:42:01.095Z,89.5
2022-09-12T02:43:01.079Z,90.2
2022-09-12T02:44:00.765Z,90.3
2022-09-12T02:45:00.375Z,89.6
2022-09-12T02:46:00.298Z,88.8
2022-09-12T02:47:00.206Z,89
2022-09-12T02:47:59.825Z,88.7
2022-09-12T02:49:02.836Z,88.3
2022-09-12T02:50:01.125Z,87.9
2022-09-12T02:51:01.126Z,88.5
2022-09-12T02:52:01.150Z,89.4
2022-09-12T02:53:01.041Z,89.7
2022-09-12T02:54:00.628Z,89.8
2022-09-12T02:55:00.241Z,89.8
2022-09-12T02:55:59.820Z,89.5
2022-09-12T02:57:01.448Z,89.2
2022-09-12T02:58:02.912Z,88.9
2022-09-12T02:59:01.082Z,88.7
2022-09-12T03:00:01.083Z,88.6
2022-09-12T03:01:01.508Z,88.3
2022-09-12T03:02:01.554Z,88.3
2022-09-12T03:03:01.098Z,88.1
2022-09-12T03:04:00.695Z,87.9
2022-09-12T03:05:00.296Z,88
2022-09-12T03:05:59.887Z,87.8
2022-09-12T03:06:59.479Z,87.9
2022-09-12T03:08:01.072Z,87.9
2022-09-12T03:09:00.844Z,88
2022-09-12T03:10:00.434Z,87.9
2022-09-12T03:11:00.020Z,88.1
2022-09-12T03:11:59.752Z,88.3
2022-09-12T03:13:01.741Z,88.6
2022-09-12T03:14:00.870Z,89
2022-09-12T03:15:01.099Z,89.7
2022-09-12T03:16:01.101Z,90
2022-09-12T03:17:01.028Z,90.2
2022-09-12T03:18:01.490Z,91.2
2022-09-12T03:19:00.800Z,92
2022-09-12T03:20:00.389Z,92.4
2022-09-12T03:21:00.019Z,92.4
2022-09-12T03:21:59.606Z,92.4
2022-09-12T03:23:01.173Z,92.7
2022-09-12T03:24:00.833Z,93.8
2022-09-12T03:25:00.723Z,94.5
2022-09-12T03:26:00.751Z,94.9
2022-09-12T03:27:00.380Z,95.2
2022-09-12T03:28:01.208Z,95.2
2022-09-12T03:29:00.758Z,95.3
2022-09-12T03:30:00.348Z,95.5
2022-09-12T03:30:59.968Z,96
2022-09-12T03:31:59.655Z,96.2
2022-09-12T03:33:04.971Z,96.7
2022-09-12T03:34:00.597Z,97.4
2022-09-12T03:35:00.347Z,98.1
2022-09-12T03:35:59.875Z,98.8
2022-09-12T03:37:01.426Z,99
2022-09-12T03:38:06.957Z,99.1
2022-09-12T03:39:01.028Z,99.8
2022-09-12T03:40:01.111Z,99.9
2022-09-12T03:41:01.048Z,99.6
2022-09-12T03:42:01.054Z,99.6
2022-09-12T03:43:09.610Z,99.7
2022-09-12T03:44:00.658Z,99.7
2022-09-12T03:45:00.243Z,99.9
2022-09-12T03:45:59.852Z,99.9
2022-09-12T03:47:01.565Z,99.9
2022-09-12T03:48:12.702Z,99.9
2022-09-12T03:49:01.201Z,99.9
2022-09-12T03:50:01.105Z,99.9
2022-09-12T03:51:01.115Z,99.9
2022-09-12T03:52:01.120Z,99.9
2022-09-12T03:53:17.388Z,99.9
2022-09-12T03:54:01.443Z,99.9
2022-09-12T03:55:02.037Z,99.9
2022-09-12T03:56:01.316Z,99.9
2022-09-12T03:57:01.074Z,99.9
2022-09-12T03:58:01.088Z,99.9
2022-09-12T03:59:00.646Z,99.9
2022-09-12T04:00:00.269Z,99.9
2022-09-12T04:01:00.489Z,99.9
2022-09-12T04:02:00.230Z,99.9
2022-09-12T04:03:00.005Z,99.9
2022-09-12T04:03:59.662Z,99.9
2022-09-12T04:05:01.301Z,99.9
2022-09-12T04:06:02.126Z,99.9
2022-09-12T04:07:01.124Z,99.9
2022-09-12T04:08:01.127Z,99.9
2022-09-12T04:09:00.716Z,99.9
2022-09-12T04:10:00.365Z,99.9
2022-09-12T04:11:00.013Z,99.9
2022-09-12T04:11:59.598Z,99.9
2022-09-12T04:13:02.264Z,99.9
2022-09-12T04:14:00.954Z,99.9
2022-09-12T04:15:01.071Z,99.9
2022-09-12T04:16:01.076Z,99.9
2022-09-12T04:17:01.092Z,99.9
2022-09-12T04:18:05.617Z,99.9
2022-09-12T04:19:00.738Z,99.9
2022-09-12T04:20:00.375Z,99.9
2022-09-12T04:21:00.042Z,99.9
2022-09-12T04:21:59.667Z,99.9
2022-09-12T04:23:01.312Z,99.9
2022-09-12T04:24:01.013Z,99.9
2022-09-12T04:25:01.446Z,99.9
2022-09-12T04:26:02.118Z,99.9
2022-09-12T04:27:07.185Z,99.9
2022-09-12T04:28:02.406Z,99.9
2022-09-12T04:29:01.694Z,99.9
2022-09-12T04:30:05.966Z,99.9
2022-09-12T04:31:01.757Z,99.9
2022-09-12T04:32:05.298Z,99.9
2022-09-12T04:33:07.981Z,99.9
2022-09-12T04:34:01.273Z,99.9
2022-09-12T04:35:01.107Z,99.9
2022-09-12T04:36:01.104Z,99.9
2022-09-12T04:37:01.113Z,99.9
2022-09-12T04:38:01.138Z,99.9
2022-09-12T04:39:00.796Z,99.9
2022-09-12T04:40:00.571Z,99.9
2022-09-12T04:41:00.412Z,99.9
2022-09-12T04:42:00.119Z,99.9
2022-09-12T04:42:59.724Z,99.9
2022-09-12T04:44:01.370Z,99.9
2022-09-12T04:45:00.947Z,99.9
2022-09-12T04:46:01.156Z,99.9
2022-09-12T04:47:01.086Z,99.9
2022-09-12T04:48:01.128Z,99.9
2022-09-12T04:49:00.773Z,99.9
2022-09-12T04:50:00.486Z,99.9
2022-09-12T04:51:00.182Z,99.9
2022-09-12T04:51:59.755Z,99.9
2022-09-12T04:53:01.325Z,99.9
2022-09-12T04:54:00.905Z,99.9
2022-09-12T04:55:00.610Z,99.9
2022-09-12T04:56:00.317Z,99.9
2022-09-12T04:57:00.003Z,99.9
2022-09-12T04:57:59.718Z,99.9
2022-09-12T04:59:01.354Z,99.9
2022-09-12T05:00:07.229Z,99.9
2022-09-12T05:01:01.471Z,99.9
2022-09-12T05:02:01.097Z,99.9
2022-09-12T05:03:01.037Z,99.9
2022-09-12T05:04:00.603Z,99.9
2022-09-12T05:05:00.221Z,99.9
2022-09-12T05:05:59.884Z,99.9
2022-09-12T05:06:59.403Z,99.9
2022-09-12T05:08:01.041Z,99.9
2022-09-12T05:09:00.629Z,99.9
2022-09-12T05:10:00.556Z,99.9
2022-09-12T05:11:00.179Z,99.9
2022-09-12T05:12:04.552Z,99.9
2022-09-12T05:13:01.271Z,99.9
2022-09-12T05:14:02.401Z,99.9
2022-09-12T05:15:01.998Z,99.9
2022-09-12T05:16:01.299Z,99.9
2022-09-12T05:17:01.114Z,99.9
2022-09-12T05:18:01.074Z,99.9
2022-09-12T05:19:04.138Z,99.9
2022-09-12T05:20:01.083Z,99.9
2022-09-12T05:21:01.094Z,99.9
2022-09-12T05:22:01.116Z,99.9
2022-09-12T05:23:01.512Z,99.9
2022-09-12T05:24:07.269Z,99.9
2022-09-12T05:25:01.121Z,99.9
2022-09-12T05:26:01.138Z,99.9
2022-09-12T05:27:01.126Z,99.9
2022-09-12T05:28:01.132Z,99.9
2022-09-12T05:29:09.251Z,99.9
2022-09-12T05:30:01.044Z,99.9
2022-09-12T05:31:00.810Z,99.9
2022-09-12T05:32:01.442Z,99.9
2022-09-12T05:33:01.061Z,99.9
2022-09-12T05:34:13.096Z,99.9
2022-09-12T05:35:01.086Z,99.9
2022-09-12T05:36:01.083Z,99.9
2022-09-12T05:37:01.328Z,99.9
2022-09-12T05:38:01.103Z,99.9
2022-09-12T05:39:15.063Z,99.9
2022-09-12T05:40:01.486Z,99.9
2022-09-12T05:41:01.733Z,99.9
2022-09-12T05:42:02.063Z,99.9
2022-09-12T05:43:01.528Z,99.9
2022-09-12T05:44:00.733Z,99.9
2022-09-12T05:45:00.320Z,99.9
2022-09-12T05:46:00.009Z,99.9
2022-09-12T05:46:59.710Z,99.9
2022-09-12T05:48:01.771Z,99.9
2022-09-12T05:49:02.144Z,99.9
2022-09-12T05:50:01.106Z,99.9
2022-09-12T05:51:01.079Z,99.9
2022-09-12T05:52:01.491Z,99.9
2022-09-12T05:53:01.209Z,99.9
2022-09-12T05:54:00.796Z,99.9
2022-09-12T05:55:00.833Z,99.9
2022-09-12T05:56:00.406Z,99.9
2022-09-12T05:57:00.143Z,99.9
2022-09-12T05:58:00.058Z,99.9
2022-09-12T05:59:00.073Z,99.9
2022-09-12T05:59:59.745Z,99.9
2022-09-12T06:01:01.619Z,99.9
2022-09-12T06:02:03.871Z,99.9
2022-09-12T06:03:01.067Z,99.9
2022-09-12T06:04:00.551Z,99.9
2022-09-12T06:05:00.297Z,99.9
2022-09-12T06:05:59.832Z,99.9
2022-09-12T06:07:02.508Z,99.9
2022-09-12T06:08:01.398Z,99.9
2022-09-12T06:09:00.977Z,99.9
2022-09-12T06:10:01.110Z,99.9
2022-09-12T06:11:02.409Z,99.9
2022-09-12T06:12:01.548Z,99.9
2022-09-12T06:13:01.226Z,99.9
2022-09-12T06:14:01.973Z,99.9
2022-09-12T06:15:01.314Z,99.9
2022-09-12T06:16:01.417Z,99.9
2022-09-12T06:17:01.216Z,99.9
2022-09-12T06:18:08.009Z,99.9
2022-09-12T06:19:00.963Z,99.9
2022-09-12T06:20:00.663Z,99.9
2022-09-12T06:21:00.269Z,99.9
2022-09-12T06:21:59.850Z,99.9
2022-09-12T06:23:01.675Z,99.9
2022-09-12T06:24:01.346Z,99.9
2022-09-12T06:25:01.120Z,99.9
2022-09-12T06:26:01.494Z,99.9
2022-09-12T06:27:01.432Z,99.9
2022-09-12T06:28:01.149Z,99.9
2022-09-12T06:29:00.940Z,99.9
2022-09-12T06:30:00.711Z,99.9
2022-09-12T06:31:00.623Z,99.9
2022-09-12T06:32:00.267Z,99.9
2022-09-12T06:32:59.981Z,99.9
2022-09-12T06:33:59.838Z,99.9
2022-09-12T06:35:02.225Z,99.9
2022-09-12T06:36:01.461Z,99.9
2022-09-12T06:37:01.297Z,99.9
2022-09-12T06:38:01.746Z,99.9
2022-09-12T06:39:00.910Z,99.9
2022-09-12T06:40:02.038Z,99.9
2022-09-12T06:41:01.104Z,99.9
2022-09-12T06:42:01.764Z,99.9
2022-09-12T06:43:01.108Z,99.9
2022-09-12T06:44:00.679Z,99.9
2022-09-12T06:45:00.733Z,99.9
2022-09-12T06:46:00.498Z,99.9
2022-09-12T06:47:00.118Z,99.9
2022-09-12T06:47:59.705Z,99.9
2022-09-12T06:49:01.350Z,99.9
2022-09-12T06:50:01.936Z,99.9
2022-09-12T06:51:01.059Z,99.9
2022-09-12T06:52:01.190Z,99.9
2022-09-12T06:53:01.387Z,99.9
2022-09-12T06:54:01.154Z,99.9
2022-09-12T06:55:01.071Z,99.9
2022-09-12T06:56:01.203Z,99.9
2022-09-12T06:57:01.907Z,99.9
2022-09-12T06:58:01.403Z,99.9
2022-09-12T06:59:00.479Z,99.9
2022-09-12T07:00:04.562Z,99.9
2022-09-12T07:01:01.214Z,99.9
2022-09-12T07:02:01.214Z,99.9
2022-09-12T07:03:01.928Z,99.9
2022-09-12T07:04:01.062Z,99.9
2022-09-12T07:05:08.020Z,99.9
2022-09-12T07:06:02.241Z,99.9
2022-09-12T07:07:01.072Z,99.9
2022-09-12T07:08:01.404Z,99.9
2022-09-12T07:09:00.705Z,99.9
2022-09-12T07:10:09.254Z,99.9
2022-09-12T07:11:01.813Z,99.9
2022-09-12T07:12:01.105Z,99.9
2022-09-12T07:13:01.495Z,99.9
2022-09-12T07:14:01.216Z,99.9
2022-09-12T07:15:12.863Z,99.9
2022-09-12T07:16:01.413Z,99.9
2022-09-12T07:17:01.247Z,99.9
2022-09-12T07:18:01.139Z,99.9
2022-09-12T07:19:01.059Z,99.9
2022-09-12T07:20:15.186Z,99.9
2022-09-12T07:21:01.926Z,99.9
2022-09-12T07:22:01.218Z,99.9
2022-09-12T07:23:01.089Z,99.9
2022-09-12T07:24:01.099Z,99.9
2022-09-12T07:25:02.453Z,99.9
2022-09-12T07:26:01.466Z,99.9
2022-09-12T07:27:01.298Z,99.6
2022-09-12T07:28:01.195Z,98.7
2022-09-12T07:29:25.086Z,98.2
2022-09-12T07:30:01.123Z,98.2
2022-09-12T07:31:01.052Z,97.1
2022-09-12T07:32:01.149Z,96.7
2022-09-12T07:33:01.140Z,96.9
2022-09-12T07:34:01.052Z,97.2
2022-09-12T07:35:01.193Z,96.8
2022-09-12T07:36:01.384Z,96.5
2022-09-12T07:37:01.768Z,95.2
2022-09-12T07:38:01.054Z,93.7
2022-09-12T07:39:01.500Z,93.5
2022-09-12T07:40:01.054Z,93.1
2022-09-12T07:41:01.088Z,92.2
2022-09-12T07:42:01.179Z,92.2
2022-09-12T07:43:01.115Z,90.8
2022-09-12T07:44:00.814Z,88.7
2022-09-12T07:45:00.612Z,88.5
2022-09-12T07:46:00.278Z,88
2022-09-12T07:47:00.394Z,88.8
2022-09-12T07:48:00.481Z,89.1
2022-09-12T07:49:00.146Z,88.2
2022-09-12T07:49:59.901Z,89.5
2022-09-12T07:50:59.634Z,89.2
2022-09-12T07:52:01.796Z,88.2
2022-09-12T07:53:02.296Z,87.9
2022-09-12T07:54:00.963Z,86.6
2022-09-12T07:55:01.482Z,85.7
2022-09-12T07:56:00.672Z,85.6
2022-09-12T07:57:00.693Z,86
2022-09-12T07:58:00.403Z,85.9
2022-09-12T07:59:00.091Z,86.8
2022-09-12T07:59:59.777Z,87.4
2022-09-12T08:01:01.602Z,87.3
2022-09-12T08:02:01.195Z,86.8
2022-09-12T08:03:01.919Z,87.2
2022-09-12T08:04:01.160Z,87.6
2022-09-12T08:05:01.141Z,87.1
2022-09-12T08:06:01.552Z,83.7
2022-09-12T08:07:01.155Z,84.3
2022-09-12T08:08:01.972Z,84.6
2022-09-12T08:09:01.450Z,83.6
2022-09-12T08:10:01.771Z,81.9
2022-09-12T08:11:01.193Z,82.6
2022-09-12T08:12:01.105Z,83.2
2022-09-12T08:13:01.419Z,83.9
2022-09-12T08:14:01.046Z,84.4
2022-09-12T08:15:01.030Z,85.9
2022-09-12T08:16:01.469Z,87.2
2022-09-12T08:17:01.344Z,87.5
2022-09-12T08:18:02.553Z,89.2
2022-09-12T08:19:02.059Z,90.1
2022-09-12T08:20:01.217Z,90.5
2022-09-12T08:21:01.041Z,89.4
2022-09-12T08:22:01.049Z,87
2022-09-12T08:23:01.050Z,87.6
2022-09-12T08:24:01.053Z,88.5
2022-09-12T08:25:01.086Z,89.4
2022-09-12T08:26:05.754Z,89.8
2022-09-12T08:27:02.758Z,90.3
2022-09-12T08:28:01.089Z,90.1
2022-09-12T08:29:01.106Z,89.7
2022-09-12T08:30:01.112Z,89.5
2022-09-12T08:31:00.931Z,89.3
2022-09-12T08:32:01.320Z,89.9
2022-09-12T08:33:01.206Z,89.1
2022-09-12T08:34:01.232Z,88.2
2022-09-12T08:35:01.608Z,88.8
2022-09-12T08:36:02.781Z,88.8
2022-09-12T08:37:01.143Z,89.5
2022-09-12T08:38:01.741Z,85.9
2022-09-12T08:39:01.162Z,85.9
2022-09-12T08:40:00.921Z,84.6
2022-09-12T08:41:06.363Z,84.5
2022-09-12T08:42:01.572Z,85.6
2022-09-12T08:43:02.093Z,86.6
2022-09-12T08:44:01.494Z,87.9
2022-09-12T08:45:01.205Z,89.4
2022-09-12T08:46:07.856Z,90.2
2022-09-12T08:47:01.125Z,91.1
2022-09-12T08:48:01.147Z,91.5
2022-09-12T08:49:01.141Z,90.8
2022-09-12T08:50:01.140Z,90.9
2022-09-12T08:51:09.386Z,90.6
2022-09-12T08:52:01.274Z,90.4
2022-09-12T08:53:02.067Z,88.7
2022-09-12T08:54:01.414Z,89.4
2022-09-12T08:55:01.444Z,88.4
2022-09-12T08:56:12.691Z,87.3
2022-09-12T08:57:01.078Z,86.6
2022-09-12T08:58:01.025Z,80.5
2022-09-12T08:59:01.098Z,78.3
2022-09-12T09:00:01.125Z,79.5
2022-09-12T09:01:15.927Z,79.6
2022-09-12T09:02:01.533Z,79.8
2022-09-12T09:03:01.513Z,77.5
2022-09-12T09:04:01.402Z,74.9
2022-09-12T09:05:01.126Z,73.7
2022-09-12T09:06:01.139Z,75.4
2022-09-12T09:07:01.146Z,77.8
2022-09-12T09:08:01.045Z,76.1
2022-09-12T09:09:01.086Z,76
2022-09-12T09:10:01.110Z,76.8
2022-09-12T09:11:01.133Z,76.8
2022-09-12T09:12:01.123Z,76.1
2022-09-12T09:13:00.775Z,76.1
2022-09-12T09:14:04.456Z,77.2
2022-09-12T09:15:01.465Z,75.6
2022-09-12T09:16:02.110Z,77.2
2022-09-12T09:17:01.101Z,78.4
2022-09-12T09:18:00.728Z,78.3
2022-09-12T09:19:00.358Z,76.3
2022-09-12T09:19:59.980Z,74.4
2022-09-12T09:20:59.633Z,74.6
2022-09-12T09:22:01.448Z,76
2022-09-12T09:23:02.006Z,76.1
2022-09-12T09:24:01.092Z,76.3
2022-09-12T09:25:01.057Z,76.6
2022-09-12T09:26:01.076Z,75.7
2022-09-12T09:27:01.068Z,74.6
2022-09-12T09:28:01.068Z,75.4
2022-09-12T09:29:01.119Z,76.4
2022-09-12T09:30:01.040Z,75.4
2022-09-12T09:31:00.766Z,75.9
2022-09-12T09:32:00.380Z,76.2
2022-09-12T09:32:59.969Z,75.5
2022-09-12T09:33:59.584Z,72
2022-09-12T09:35:01.177Z,71.8
2022-09-12T09:36:00.793Z,68
2022-09-12T09:37:00.410Z,66
2022-09-12T09:37:59.999Z,68
2022-09-12T09:38:59.606Z,69.3
2022-09-12T09:40:01.329Z,72
2022-09-12T09:41:01.961Z,69
2022-09-12T09:42:01.148Z,69.4
2022-09-12T09:43:01.456Z,67.8
2022-09-12T09:44:01.171Z,60.9
2022-09-12T09:45:01.100Z,58.8
2022-09-12T09:46:01.133Z,57.9
2022-09-12T09:47:01.101Z,56.1
2022-09-12T09:48:01.101Z,52.5
2022-09-12T09:49:02.580Z,54.1
2022-09-12T09:50:02.098Z,53.8
2022-09-12T09:51:01.527Z,51.5
2022-09-12T09:52:03.052Z,46.2
2022-09-12T09:53:01.132Z,46.7
2022-09-12T09:54:01.164Z,46
2022-09-12T09:55:01.053Z,47
2022-09-12T09:56:01.062Z,46.3
2022-09-12T09:57:01.207Z,45.6
2022-09-12T09:58:01.456Z,46.6
2022-09-12T09:59:01.087Z,47.1
2022-09-12T10:00:01.080Z,47.2
2022-09-12T10:01:01.247Z,47.6
2022-09-12T10:02:01.093Z,47.6
2022-09-12T10:03:01.227Z,47.2
2022-09-12T10:04:01.117Z,46.5
2022-09-12T10:05:01.121Z,46.1
2022-09-12T10:06:01.211Z,45.1
2022-09-12T10:07:01.424Z,44.8
2022-09-12T10:08:01.033Z,44.6
2022-09-12T10:09:01.067Z,44.3
2022-09-12T10:10:01.047Z,44.2
2022-09-12T10:11:01.050Z,44.2
2022-09-12T10:12:01.760Z,44.5
2022-09-12T10:13:01.069Z,44.2
2022-09-12T10:14:01.122Z,44.7
2022-09-12T10:15:01.118Z,42.7
2022-09-12T10:16:00.799Z,42.1
2022-09-12T10:17:01.096Z,40.2
2022-09-12T10:18:01.089Z,39.9
2022-09-12T10:19:01.119Z,38.4
2022-09-12T10:20:22.253Z,35.9
2022-09-12T10:21:01.135Z,35.8
2022-09-12T10:22:01.130Z,36
2022-09-12T10:23:01.467Z,36.1
2022-09-12T10:24:01.646Z,35.3
2022-09-12T10:25:01.758Z,30.6
2022-09-12T10:26:02.056Z,31.4
2022-09-12T10:27:04.105Z,30.8
2022-09-12T10:28:01.183Z,29.1
2022-09-12T10:29:01.073Z,26.4
2022-09-12T10:30:01.578Z,26.8
2022-09-12T10:31:00.916Z,26.8
2022-09-12T10:32:08.184Z,27
2022-09-12T10:33:01.057Z,27
2022-09-12T10:34:01.112Z,26.3
2022-09-12T10:35:01.030Z,25
2022-09-12T10:36:01.176Z,21.3
2022-09-12T10:37:09.969Z,21
2022-09-12T10:38:01.121Z,21.2
2022-09-12T10:39:01.533Z,22.3
2022-09-12T10:40:01.086Z,21.9
2022-09-12T10:41:01.160Z,21.7
2022-09-12T10:42:13.997Z,19.8
2022-09-12T10:43:01.061Z,19.5
2022-09-12T10:44:01.072Z,19.7
2022-09-12T10:45:01.044Z,20.3
2022-09-12T10:46:01.084Z,20.9
2022-09-12T10:47:15.979Z,20.1
2022-09-12T10:48:05.473Z,18.8
2022-09-12T10:49:01.181Z,17
2022-09-12T10:50:01.130Z,16.9
2022-09-12T10:51:01.122Z,15.5
2022-09-12T10:52:01.112Z,13.5
2022-09-12T10:53:01.762Z,13.9
2022-09-12T10:54:01.528Z,14.3
2022-09-12T10:55:01.148Z,15.2
2022-09-12T10:56:01.151Z,12.9
2022-09-12T10:57:01.044Z,12
2022-09-12T10:58:01.155Z,11.7
2022-09-12T10:59:01.062Z,12.3
2022-09-12T11:00:01.079Z,12.9
2022-09-12T11:01:01.408Z,11.2
2022-09-12T11:02:01.487Z,10.1
2022-09-12T11:03:01.111Z,10
2022-09-12T11:04:01.110Z,9.7
2022-09-12T11:05:01.105Z,10.1
2022-09-12T11:06:01.114Z,9.5
2022-09-12T11:07:01.117Z,9.9
2022-09-12T11:08:01.434Z,10.1
2022-09-12T11:09:01.122Z,9.6
2022-09-12T11:10:01.054Z,9.4
2022-09-12T11:11:01.161Z,9.5
2022-09-12T11:12:01.048Z,9
2022-09-12T11:13:01.055Z,9.5
2022-09-12T11:14:01.083Z,10.6
2022-09-12T11:15:01.522Z,10.1
2022-09-12T11:16:00.837Z,7.6
2022-09-12T11:17:00.552Z,6.7
2022-09-12T11:18:00.282Z,7.2
2022-09-12T11:19:00.076Z,7.5
2022-09-12T11:19:59.755Z,6.7
2022-09-12T11:21:02.189Z,6.2
2022-09-12T11:22:01.109Z,5.2
2022-09-12T11:23:01.146Z,5.2
2022-09-12T11:24:01.144Z,4.8
2022-09-12T11:25:01.048Z,3.2
2022-09-12T11:26:01.338Z,2.9
2022-09-12T11:27:01.141Z,1.5
2022-09-12T11:28:01.120Z,1
2022-09-12T11:29:01.045Z,2.7
2022-09-12T11:30:01.078Z,1
2022-09-12T11:31:01.202Z,1
2022-09-12T11:32:01.872Z,1.8
2022-09-12T11:33:01.759Z,2.7
2022-09-12T11:34:01.905Z,3.3
2022-09-12T11:35:01.399Z,3.8
2022-09-12T11:36:01.101Z,3.8
2022-09-12T11:37:00.689Z,2.8
2022-09-12T11:38:00.285Z,2.2
2022-09-12T11:38:59.974Z,1
2022-09-12T11:39:59.590Z,1
2022-09-12T11:41:01.705Z,1
2022-09-12T11:42:01.138Z,1.1
2022-09-12T11:43:00.840Z,1.1
2022-09-12T11:44:00.543Z,1
2022-09-12T11:45:00.221Z,1
2022-09-12T11:45:59.933Z,1
2022-09-12T11:46:59.530Z,1
2022-09-12T11:48:02.404Z,1
2022-09-12T11:49:01.480Z,1
2022-09-12T11:50:01.191Z,1
2022-09-12T11:51:01.094Z,1
2022-09-12T11:52:01.099Z,1
2022-09-12T11:53:01.108Z,1
2022-09-12T11:54:01.122Z,1
2022-09-12T11:55:01.144Z,1
2022-09-12T11:56:01.148Z,1
2022-09-12T11:57:00.812Z,1
2022-09-12T11:58:00.521Z,1
2022-09-12T11:59:00.116Z,1.4
2022-09-12T11:59:59.702Z,1
2022-09-12T12:01:01.731Z,1
2022-09-12T12:02:02.477Z,1
2022-09-12T12:03:01.065Z,1
2022-09-12T12:04:01.225Z,1
2022-09-12T12:05:01.148Z,1
2022-09-12T12:06:00.792Z,1
2022-09-12T12:07:00.371Z,1
2022-09-12T12:08:02.694Z,1
2022-09-12T12:09:02.679Z,1
2022-09-12T12:10:01.130Z,1
2022-09-12T12:11:01.124Z,1
2022-09-12T12:12:01.130Z,1
2022-09-12T12:13:09.624Z,1
2022-09-12T12:14:02.118Z,1
2022-09-12T12:15:01.055Z,1
2022-09-12T12:16:01.104Z,1
2022-09-12T12:17:00.846Z,1
2022-09-12T12:18:08.882Z,1
2022-09-12T12:19:01.091Z,1
2022-09-12T12:20:06.459Z,1
2022-09-12T12:21:01.093Z,1
2022-09-12T12:22:01.035Z,1
2022-09-12T12:23:11.223Z,1
2022-09-12T12:24:01.271Z,1
2022-09-12T12:25:02.081Z,1
2022-09-12T12:26:01.627Z,1
2022-09-12T12:27:02.507Z,1
2022-09-12T12:28:13.812Z,1
2022-09-12T12:29:01.146Z,1
2022-09-12T12:30:01.053Z,1
2022-09-12T12:31:01.123Z,1
2022-09-12T12:32:01.056Z,1
2022-09-12T12:33:16.485Z,1
2022-09-12T12:34:02.183Z,1
2022-09-12T12:35:02.901Z,1
2022-09-12T12:36:01.033Z,1
2022-09-12T12:37:07.183Z,1
2022-09-12T12:38:01.108Z,1
2022-09-12T12:39:01.120Z,1
2022-09-12T12:40:01.483Z,1
2022-09-12T12:41:01.056Z,1
2022-09-12T12:42:01.441Z,1
2022-09-12T12:43:01.572Z,1
2022-09-12T12:44:03.100Z,1
2022-09-12T12:45:01.744Z,1
2022-09-12T12:46:02.158Z,1
2022-09-12T12:47:01.857Z,1
2022-09-12T12:48:05.075Z,1
2022-09-12T12:49:01.743Z,1
2022-09-12T12:50:02.098Z,1
2022-09-12T12:51:01.313Z,1
2022-09-12T12:52:01.994Z,1
2022-09-12T12:53:01.208Z,1
2022-09-12T12:54:01.098Z,1
2022-09-12T12:55:01.104Z,1
2022-09-12T12:56:01.142Z,1
2022-09-12T12:57:00.813Z,1
2022-09-12T12:58:00.426Z,1
2022-09-12T12:58:59.992Z,1
2022-09-12T12:59:59.652Z,1
2022-09-12T13:01:01.968Z,1
2022-09-12T13:02:01.097Z,1
2022-09-12T13:03:01.065Z,1
2022-09-12T13:04:01.073Z,1
2022-09-12T13:05:01.076Z,1
2022-09-12T13:06:01.183Z,1
2022-09-12T13:07:05.814Z,1
2022-09-12T13:08:01.109Z,1
2022-09-12T13:09:01.096Z,1
2022-09-12T13:10:01.124Z,1
2022-09-12T13:11:01.127Z,1
2022-09-12T13:12:01.135Z,1
2022-09-12T13:13:01.176Z,1
2022-09-12T13:14:01.139Z,1
2022-09-12T13:15:01.127Z,1
2022-09-12T13:16:01.204Z,1
2022-09-12T13:17:01.575Z,1
2022-09-12T13:18:01.980Z,1
2022-09-12T13:19:01.731Z,1
2022-09-12T13:20:26.175Z,1
2022-09-12T13:21:01.426Z,1
2022-09-12T13:22:02.192Z,1
2022-09-12T13:23:01.492Z,1
2022-09-12T13:24:01.494Z,1
2022-09-12T13:25:01.100Z,1
2022-09-12T13:26:01.118Z,1
2022-09-12T13:27:01.108Z,1
2022-09-12T13:28:01.121Z,1
2022-09-12T13:29:01.505Z,1
2022-09-12T13:30:01.646Z,1
2022-09-12T13:31:01.359Z,1
2022-09-12T13:32:01.053Z,1
2022-09-12T13:33:01.063Z,1
2022-09-12T13:34:01.065Z,1
2022-09-12T13:35:01.165Z,1